createdAt,value
2023-03-30T00:00:54.964Z,26.12
2023-03-30T00:04:54.971Z,26.13
2023-03-30T00:08:55.033Z,26.18
2023-03-30T00:12:55.020Z,26.15
2023-03-30T00:16:55.149Z,26.15
2023-03-30T00:20:55.066Z,26.19
2023-03-30T00:24:55.138Z,26.16
2023-03-30T00:28:55.173Z,26.18
2023-03-30T00:32:55.264Z,26.15
2023-03-30T00:36:55.203Z,26.15
2023-03-30T00:40:55.242Z,26.13
2023-03-30T00:44:55.332Z,26.13
2023-03-30T00:48:55.315Z,26.13
2023-03-30T00:52:55.448Z,26.12
2023-03-30T00:56:55.448Z,26.13
2023-03-30T01:00:55.485Z,26.13
2023-03-30T01:04:55.495Z,26.13
2023-03-30T01:08:55.512Z,26.11
2023-03-30T01:12:55.656Z,26.06
2023-03-30T01:16:55.624Z,25.98
2023-03-30T01:20:55.715Z,25.99
2023-03-30T01:24:55.821Z,25.98
2023-03-30T01:28:55.797Z,25.98
2023-03-30T01:32:55.938Z,25.99
2023-03-30T01:36:55.946Z,26.03
2023-03-30T01:40:55.974Z,26.03
2023-03-30T01:44:56.069Z,26.01
2023-03-30T01:48:56.105Z,25.96
2023-03-30T01:52:56.191Z,25.99
2023-03-30T01:56:56.314Z,25.93
2023-03-30T02:00:56.360Z,25.93
2023-03-30T02:04:56.446Z,25.96
2023-03-30T02:08:56.522Z,25.95
2023-03-30T02:12:56.608Z,25.96
2023-03-30T02:16:56.733Z,25.99
2023-03-30T02:20:56.808Z,26.03
2023-03-30T02:24:56.845Z,26.01
2023-03-30T02:28:56.922Z,26.02
2023-03-30T02:32:57.010Z,26.03
2023-03-30T02:36:57.032Z,26.02
2023-03-30T02:40:57.129Z,26.01
2023-03-30T02:44:57.229Z,26.01
2023-03-30T02:48:57.280Z,26.02
2023-03-30T02:52:57.357Z,26.01
2023-03-30T02:56:57.498Z,26.02
2023-03-30T03:00:59.362Z,26.02
2023-03-30T03:04:57.561Z,26.02
2023-03-30T03:08:57.637Z,26.01
2023-03-30T03:12:57.721Z,26.02
2023-03-30T03:16:57.877Z,26.01
2023-03-30T03:20:57.868Z,26.03
2023-03-30T03:24:57.905Z,26.03
2023-03-30T03:28:58.020Z,26.02
2023-03-30T03:32:58.151Z,26.01
2023-03-30T03:36:58.113Z,26.05
2023-03-30T03:40:58.227Z,26.02
2023-03-30T03:44:58.665Z,26.05
2023-03-30T03:48:58.345Z,26.02
2023-03-30T03:52:58.446Z,25.99
2023-03-30T03:56:58.579Z,26.03
2023-03-30T04:00:58.636Z,25.99
2023-03-30T04:04:58.684Z,25.99
2023-03-30T04:08:58.682Z,25.99
2023-03-30T04:12:58.744Z,25.99
2023-03-30T04:16:58.815Z,25.98
2023-03-30T04:20:58.906Z,25.98
2023-03-30T04:24:58.989Z,25.95
2023-03-30T04:28:59.033Z,25.92
2023-03-30T04:32:59.168Z,25.85
2023-03-30T04:36:59.213Z,25.85
2023-03-30T04:40:59.323Z,25.82
2023-03-30T04:44:59.461Z,25.78
2023-03-30T04:48:59.554Z,25.74
2023-03-30T04:52:59.688Z,25.71
2023-03-30T04:56:59.897Z,25.70
2023-03-30T05:01:00.013Z,25.72
2023-03-30T05:05:00.154Z,25.74
2023-03-30T05:09:00.249Z,25.81
2023-03-30T05:13:00.358Z,25.80
2023-03-30T05:17:00.544Z,25.81
2023-03-30T05:21:00.590Z,25.82
2023-03-30T05:25:00.689Z,25.84
2023-03-30T05:29:00.825Z,25.81
2023-03-30T05:33:00.965Z,25.81
2023-03-30T05:37:01.108Z,25.82
2023-03-30T05:41:02.372Z,25.84
2023-03-30T05:45:01.726Z,25.89
2023-03-30T05:49:01.443Z,25.99
2023-03-30T05:53:01.729Z,25.48
2023-03-30T05:57:01.780Z,25.23
2023-03-30T06:01:01.905Z,25.48
2023-03-30T06:05:01.449Z,25.81
2023-03-30T06:09:01.328Z,26.12
2023-03-30T06:13:01.280Z,26.32
2023-03-30T06:17:01.369Z,26.53
2023-03-30T06:21:01.317Z,26.67
2023-03-30T06:25:01.179Z,26.52
2023-03-30T06:29:01.152Z,26.63
2023-03-30T06:33:01.264Z,26.77
2023-03-30T06:37:01.103Z,26.87
2023-03-30T06:41:01.627Z,26.97
2023-03-30T06:45:01.292Z,27.04
2023-03-30T06:49:01.742Z,27.12
2023-03-30T06:53:01.741Z,27.18
2023-03-30T06:57:01.808Z,27.21
2023-03-30T07:01:01.977Z,27.38
2023-03-30T07:05:01.892Z,27.37
2023-03-30T07:09:01.989Z,27.46
2023-03-30T07:13:01.892Z,27.52
2023-03-30T07:17:01.903Z,27.61
2023-03-30T07:21:02.154Z,27.58
2023-03-30T07:25:01.873Z,27.56
2023-03-30T07:29:02.052Z,27.69
2023-03-30T07:33:02.441Z,27.75
2023-03-30T07:37:02.275Z,27.73
2023-03-30T07:41:02.341Z,27.71
2023-03-30T07:45:02.762Z,27.40
2023-03-30T07:49:02.775Z,27.34
2023-03-30T07:53:02.754Z,26.81
2023-03-30T07:57:02.854Z,26.19
2023-03-30T08:01:03.616Z,26.33
2023-03-30T08:05:03.179Z,26.69
2023-03-30T08:09:03.293Z,26.97
2023-03-30T08:13:03.408Z,27.10
2023-03-30T08:17:03.541Z,27.25
2023-03-30T08:21:04.200Z,27.35
2023-03-30T08:25:03.834Z,27.46
2023-03-30T08:29:04.278Z,27.61
2023-03-30T08:33:06.823Z,27.71
2023-03-30T08:37:04.301Z,27.85
2023-03-30T08:41:04.530Z,27.86
2023-03-30T08:45:03.812Z,27.86
2023-03-30T08:49:03.737Z,27.85
2023-03-30T08:53:03.807Z,27.91
2023-03-30T08:57:03.834Z,27.14
2023-03-30T09:01:04.008Z,26.64
2023-03-30T09:05:03.619Z,26.13
2023-03-30T09:09:03.599Z,26.23
2023-03-30T09:13:03.506Z,26.43
2023-03-30T09:17:03.535Z,26.59
2023-03-30T09:21:04.025Z,26.30
2023-03-30T09:25:03.447Z,26.33
2023-03-30T09:29:03.518Z,26.01
2023-03-30T09:33:03.663Z,26.29
2023-03-30T09:37:03.677Z,26.60
2023-03-30T09:41:03.911Z,26.87
2023-03-30T09:45:04.351Z,27.11
2023-03-30T09:49:04.305Z,27.21
2023-03-30T09:53:04.822Z,26.87
2023-03-30T09:57:04.875Z,26.69
2023-03-30T10:01:04.487Z,26.70
2023-03-30T10:05:04.482Z,26.70
2023-03-30T10:09:04.517Z,26.71
2023-03-30T10:13:04.811Z,26.71
2023-03-30T10:17:04.511Z,26.77
2023-03-30T10:21:04.539Z,26.77
2023-03-30T10:25:04.909Z,26.77
2023-03-30T10:29:04.482Z,26.77
2023-03-30T10:33:04.687Z,26.76
2023-03-30T10:37:04.550Z,26.71
2023-03-30T10:41:04.521Z,26.79
2023-03-30T10:45:04.850Z,26.74
2023-03-30T10:49:04.462Z,26.83
2023-03-30T10:53:04.589Z,27.01
2023-03-30T10:57:04.573Z,27.10
2023-03-30T11:01:04.563Z,27.20
2023-03-30T11:05:04.490Z,27.27
2023-03-30T11:09:04.425Z,27.28
2023-03-30T11:13:04.864Z,27.38
2023-03-30T11:17:04.434Z,27.41
2023-03-30T11:21:04.324Z,27.42
2023-03-30T11:25:04.364Z,27.53
2023-03-30T11:29:04.389Z,27.46
2023-03-30T11:33:04.922Z,27.45
2023-03-30T11:37:04.421Z,27.58
2023-03-30T11:41:04.232Z,27.63
2023-03-30T11:45:04.473Z,27.61
2023-03-30T11:49:04.620Z,27.55
2023-03-30T11:53:04.863Z,27.48
2023-03-30T11:57:05.414Z,27.45
2023-03-30T12:01:05.357Z,27.45
2023-03-30T12:05:05.468Z,27.42
2023-03-30T12:09:05.621Z,27.40
2023-03-30T12:13:05.870Z,27.41
2023-03-30T12:17:06.018Z,27.40
2023-03-30T12:21:06.234Z,27.40
2023-03-30T12:25:06.473Z,27.40
2023-03-30T12:33:06.605Z,27.38
2023-03-30T12:37:06.536Z,27.32
2023-03-30T12:41:06.476Z,27.31
2023-03-30T12:45:06.446Z,27.28
2023-03-30T12:49:06.413Z,27.24
2023-03-30T12:53:06.391Z,27.20
2023-03-30T12:57:06.375Z,27.17
2023-03-30T13:01:06.329Z,27.12
2023-03-30T13:05:06.269Z,27.05
2023-03-30T13:09:06.220Z,27.03
2023-03-30T13:13:06.200Z,26.97
2023-03-30T13:17:06.457Z,26.95
2023-03-30T13:21:06.501Z,26.93
2023-03-30T13:25:06.913Z,26.93
2023-03-30T13:29:06.865Z,26.93
2023-03-30T13:33:07.076Z,26.95
2023-03-30T13:37:07.244Z,26.95
2023-03-30T13:41:07.413Z,26.93
2023-03-30T13:45:07.587Z,26.87
2023-03-30T13:49:07.798Z,26.80
2023-03-30T13:53:08.028Z,26.81
2023-03-30T13:57:08.218Z,26.79
2023-03-30T14:01:08.897Z,26.77
2023-03-30T14:05:08.640Z,26.76
2023-03-30T14:09:08.876Z,26.77
2023-03-30T14:13:09.089Z,26.79
2023-03-30T14:17:09.423Z,26.77
2023-03-30T14:21:09.439Z,26.79
2023-03-30T14:25:09.660Z,26.80
2023-03-30T14:29:11.362Z,26.80
2023-03-30T14:33:09.902Z,26.80
2023-03-30T14:37:09.784Z,26.79
2023-03-30T14:41:09.737Z,26.79
2023-03-30T14:45:09.709Z,26.76
2023-03-30T14:49:09.652Z,26.77
2023-03-30T14:53:09.609Z,26.76
2023-03-30T14:57:09.625Z,26.76
2023-03-30T15:01:10.035Z,26.77
2023-03-30T15:05:09.718Z,26.74
2023-03-30T15:09:09.975Z,26.74
2023-03-30T15:13:10.151Z,26.74
2023-03-30T15:17:10.412Z,26.77
2023-03-30T15:21:10.580Z,26.80
2023-03-30T15:25:10.802Z,26.80
2023-03-30T15:29:10.995Z,26.80
2023-03-30T15:33:11.233Z,26.81
2023-03-30T15:37:11.439Z,26.80
2023-03-30T15:41:11.645Z,26.79
2023-03-30T15:45:11.863Z,26.77
2023-03-30T15:49:12.087Z,26.77
2023-03-30T15:53:12.302Z,26.74
2023-03-30T15:57:12.555Z,26.79
2023-03-30T16:01:12.704Z,26.76
2023-03-30T16:05:12.755Z,26.76
2023-03-30T16:09:12.605Z,26.74
2023-03-30T16:13:12.582Z,26.71
2023-03-30T16:17:12.546Z,26.70
2023-03-30T16:21:12.607Z,26.71
2023-03-30T16:25:12.507Z,26.71
2023-03-30T16:29:12.480Z,26.70
2023-03-30T16:33:12.437Z,26.67
2023-03-30T16:37:12.403Z,26.67
2023-03-30T16:41:12.511Z,26.66
2023-03-30T16:45:12.468Z,26.64
2023-03-30T16:49:12.452Z,26.66
2023-03-30T16:53:12.520Z,26.63
2023-03-30T16:57:12.408Z,26.63
2023-03-30T17:01:12.335Z,26.60
2023-03-30T17:05:12.410Z,26.62
2023-03-30T17:09:12.286Z,26.62
2023-03-30T17:13:12.237Z,26.62
2023-03-30T17:17:12.231Z,26.62
2023-03-30T17:21:12.256Z,26.60
2023-03-30T17:25:12.239Z,26.60
2023-03-30T17:29:12.235Z,26.60
2023-03-30T17:33:12.139Z,26.60
2023-03-30T17:37:12.123Z,26.59
2023-03-30T17:41:12.063Z,26.57
2023-03-30T17:45:12.105Z,26.57
2023-03-30T17:49:12.022Z,26.54
2023-03-30T17:53:11.967Z,26.56
2023-03-30T17:57:11.949Z,26.53
2023-03-30T18:01:12.058Z,26.52
2023-03-30T18:05:12.209Z,26.52
2023-03-30T18:09:12.349Z,26.52
2023-03-30T18:13:12.535Z,26.52
2023-03-30T18:17:12.672Z,26.49
2023-03-30T18:21:12.902Z,26.49
2023-03-30T18:25:19.106Z,26.43
2023-03-30T18:29:14.000Z,26.44
2023-03-30T18:33:13.036Z,26.44
2023-03-30T18:37:12.887Z,26.40
2023-03-30T18:41:12.928Z,26.40
2023-03-30T18:45:12.911Z,26.38
2023-03-30T18:49:12.827Z,26.38
2023-03-30T18:53:12.849Z,26.39
2023-03-30T18:57:12.878Z,26.39
2023-03-30T19:01:12.981Z,26.38
2023-03-30T19:05:12.976Z,26.38
2023-03-30T19:09:12.998Z,26.35
2023-03-30T19:13:13.016Z,26.35
2023-03-30T19:17:13.007Z,26.35
2023-03-30T19:21:13.050Z,26.35
2023-03-30T19:25:13.048Z,26.33
2023-03-30T19:29:13.030Z,26.30
2023-03-30T19:33:13.017Z,26.32
2023-03-30T19:37:13.000Z,26.32
2023-03-30T19:41:12.993Z,26.29
2023-03-30T19:45:12.981Z,26.26
2023-03-30T19:49:13.013Z,26.29
2023-03-30T19:53:13.001Z,26.26
2023-03-30T19:57:13.055Z,26.26
2023-03-30T20:01:12.982Z,26.28
2023-03-30T20:05:13.070Z,26.23
2023-03-30T20:09:12.959Z,26.22
2023-03-30T20:13:12.943Z,26.21
2023-03-30T20:17:12.931Z,26.22
2023-03-30T20:21:12.897Z,26.23
2023-03-30T20:25:12.958Z,26.23
2023-03-30T20:29:12.900Z,26.22
2023-03-30T20:33:12.924Z,26.21
2023-03-30T20:37:12.876Z,26.21
2023-03-30T20:41:12.868Z,26.18
2023-03-30T20:45:12.844Z,26.18
2023-03-30T20:49:12.848Z,26.19
2023-03-30T20:53:12.882Z,26.16
2023-03-30T20:57:12.910Z,26.15
2023-03-30T21:01:12.900Z,26.15
2023-03-30T21:05:12.911Z,26.15
2023-03-30T21:09:12.963Z,26.13
2023-03-30T21:13:12.934Z,26.16
2023-03-30T21:17:12.991Z,26.13
2023-03-30T21:21:12.965Z,26.12
2023-03-30T21:25:12.977Z,26.12
2023-03-30T21:29:13.034Z,26.11
2023-03-30T21:33:13.077Z,26.09
2023-03-30T21:37:13.041Z,26.09
2023-03-30T21:41:13.095Z,26.08
2023-03-30T21:45:13.129Z,26.05
2023-03-30T21:49:13.146Z,26.08
2023-03-30T21:53:13.212Z,26.08
2023-03-30T21:57:13.331Z,26.05
2023-03-30T22:01:13.315Z,26.06
2023-03-30T22:05:13.308Z,26.05
2023-03-30T22:09:13.349Z,26.03
2023-03-30T22:13:13.401Z,26.06
2023-03-30T22:17:13.450Z,26.03
2023-03-30T22:21:13.507Z,26.03
2023-03-30T22:25:13.582Z,26.01
2023-03-30T22:29:13.634Z,26.02
2023-03-30T22:33:13.698Z,26.03
2023-03-30T22:37:13.742Z,26.02
2023-03-30T22:41:13.798Z,26.02
2023-03-30T22:45:13.842Z,26.01
2023-03-30T22:49:13.918Z,25.96
2023-03-30T22:53:13.949Z,25.98
2023-03-30T22:57:14.051Z,25.98
2023-03-30T23:01:14.107Z,25.99
2023-03-30T23:05:14.131Z,25.96
2023-03-30T23:09:14.217Z,25.99
2023-03-30T23:13:14.287Z,25.98
2023-03-30T23:17:14.337Z,25.96
2023-03-30T23:21:14.420Z,25.96
2023-03-30T23:25:14.492Z,25.98
2023-03-30T23:29:14.553Z,25.96
2023-03-30T23:33:14.626Z,25.96
2023-03-30T23:37:14.691Z,25.95
2023-03-30T23:41:14.796Z,25.93
2023-03-30T23:45:14.831Z,25.95
2023-03-30T23:49:14.906Z,25.95
2023-03-30T23:53:15.003Z,25.92
2023-03-30T23:57:15.154Z,25.93
